x

Columbia River Bar - 20nm West Of Columbia River Mouth (46029) Wave Buoy

10:50pm - Mon 22nd May 2017 All times are PDT. -7 hours from GMT.

  • Sig Wave height 6.2ft
  • Swell Direction
  • Peak Period 10s
  • Average Period 6s
  • Wind
    16mph, 18mph gusts
  • Sea Temp 57°f
  • Air Temp 58°f
  • Sea Pressure 1017.7mb
  • Columbia River Bar - 20nm West Of Columbia River Mouth
  • Columbia River Bar - 20nm West Of Columbia River Mouth

More Historic Weather Station data

Upgrade to MSW Pro to gain access to the past 30 days of data for over 8000 Wavebouys and Weather Stations around the globe.

Join Pro

Comparision Forecast

View Surf forecast
   
Mon 05/22 10:50pm 6ft 10s 6s 16 18 mph 1017.7mb 57f 58f
9:50pm 6ft 10s 6s 18 22 mph 1017.7mb 57f 57f
8:50pm 6ft 11s 6s 20 22 mph 1017.7mb 56f 58f
7:50pm 6ft 9s 5s 20 22 mph 1017.8mb 56f 58f
6:50pm 6.5ft 10s 6s 22 27 mph 1017.9mb 56f 58f
5:50pm 5.5ft 10s 5s 22 25 mph 1018mb 57f 58f
4:50pm 5ft 9s 5s 25 29 mph 1018.3mb 58f 58f
3:50pm 5ft 11s 5s 22 25 mph 1018.4mb 58f 58f
2:50pm 5ft 10s 6s 22 27 mph 1018.6mb 58f 58f
1:50pm 4.5ft 10s 6s 22 25 mph 1018.7mb 58f 59f
12:50pm 4.5ft 10s 6s 13 16 mph 1019mb 57f 59f
11:50am 5ft 11s 6s 16 18 mph 1019.2mb 57f 58f
10:50am 5ft 10s 5s 18 22 mph 1019.6mb 57f 58f
9:50am 5.5ft 10s 6s 20 25 mph 1019.9mb 56f 57f
8:50am 5ft 10s 6s 20 25 mph 1020mb 55f 56f
7:50am 5ft 11s 6s 18 22 mph 1019.8mb 55f 56f
5:50am 5ft 10s 5s 18 20 mph 1019.5mb 55f 56f
4:50am 5ft 6s 5s 18 20 mph 1019.8mb 56f 56f
3:50am 5ft 5s 5s 20 22 mph 1020.2mb 56f 57f
2:50am 4.5ft 6s 5s 20 25 mph 1020.5mb 56f 57f
1:50am 5ft 6s 5s 20 22 mph 1020.8mb 56f 57f
12:50am 4.5ft 6s 5s 20 22 mph 1020.8mb 56f 56f
Sun 05/21 11:50pm 4.5ft 5s 5s 18 22 mph 1021.2mb 57f 56f
10:50pm 4.5ft 5s 5s 18 20 mph 1021.4mb 57f 56f
9:50pm 4.5ft 6s 5s 18 22 mph 1021.1mb 58f 56f
8:50pm 4.5ft 5s 5s 22 25 mph 1020.8mb 56f 55f
7:50pm 5ft 5s 5s 22 25 mph 1020.7mb 56f 54f
6:50pm 5ft 5s 5s 22 27 mph 1020.7mb 56f 55f
5:50pm 5ft 5s 4s 25 29 mph 1021mb 57f 55f
4:50pm 5ft 5s 4s 25 29 mph 1021.6mb 58f 55f
3:50pm 4.5ft 5s 4s 22 27 mph 1022mb 57f 55f
2:50pm 4.5ft 9s 4s 22 27 mph 1022.5mb 56f 56f
1:50pm 4.5ft 10s 5s 22 27 mph 1022.8mb 56f 55f
12:50pm 4.5ft 10s 5s 20 22 mph 1023mb 56f 55f
11:50am 4.5ft 5s 5s 20 22 mph 1023.3mb 56f 54f
10:50am 5ft 5s 5s 22 27 mph 1023.2mb 55f 54f
9:50am 5ft 8s 5s 22 25 mph 1023.2mb 55f 53f
8:50am 5ft 11s 5s 22 27 mph 1023.2mb 55f 53f
7:50am 5ft 10s 5s 20 25 mph 1023.2mb 56f 53f
6:50am 5ft 5s 5s 20 25 mph 1023.1mb 56f 53f
5:50am 5ft 5s 5s 22 25 mph 1023.1mb 56f 53f
4:50am 5ft 5s 5s 20 25 mph 1023.2mb 56f 53f
3:50am 5ft 5s 5s 20 22 mph 1023.3mb 56f 53f
2:50am 5ft 11s 6s 20 25 mph 1023.8mb 56f 53f
1:50am 5ft 10s 5s 18 20 mph 1023.7mb 56f 53f
12:50am 4.5ft 11s 5s 16 20 mph 1023.9mb 55f 53f
Sat 05/20 11:50pm 5ft 11s 6s 16 20 mph 1023.8mb 55f 53f
10:50pm 4.5ft 9s 5s 16 18 mph 1024mb 55f 53f
9:50pm 4.5ft 9s 5s 16 20 mph 1023.5mb 55f 53f
8:50pm 4.5ft 11s 6s 16 18 mph 1023.3mb 56f 53f
7:50pm 4.5ft 11s 6s 16 20 mph 1023.1mb 57f 53f
6:50pm 4.5ft 12s 6s 18 20 mph 1023.1mb 58f 54f
5:50pm 4.5ft 11s 6s 16 20 mph 1023.2mb 58f 55f
4:50pm 4.5ft 11s 6s 16 18 mph 1023.7mb 58f 55f
3:50pm 4.5ft 11s 7s 16 18 mph 1023.8mb 58f 56f
2:50pm 4.5ft 12s 7s 13 16 mph 1024.3mb 58f 55f
1:50pm 4.5ft 9s 7s 11 13 mph 1024.3mb 58f 55f
12:50pm 4.5ft 9s 6s 9 11 mph 1024.2mb 57f 54f
11:50am 4.5ft 12s 6s 7 9 mph 1024.1mb 57f 54f
10:50am 4ft 12s 6s 9 11 mph 1023.6mb 56f 53f
9:50am 4ft 12s 6s 11 11 mph 1023.5mb 56f 53f
8:50am 4.5ft 13s 6s 11 13 mph 1023.4mb 55f 53f
7:50am 4.5ft 13s 7s 9 11 mph 1023.1mb 55f 52f
6:50am 4.5ft 9s 7s 11 13 mph 1022.8mb 55f 52f
5:50am 4.5ft 9s 7s 9 11 mph 1022.4mb 56f 51f
4:50am 4ft 8s 7s 7 11 mph 1022.1mb 56f 52f
3:50am 4ft 8s 6s 9 11 mph 1022mb 56f 52f
2:50am 4ft 9s 6s 11 13 mph 1022.1mb 56f 52f
1:50am 4ft 8s 6s 11 13 mph 1021.7mb 56f 52f
12:50am 4ft 9s 6s 13 16 mph 1021.8mb 56f 52f
Fri 05/19 11:50pm 4.5ft 8s 6s 13 16 mph 1021.7mb 57f 53f
10:50pm 4ft 9s 6s 11 13 mph 1021.6mb 56f 53f
9:50pm 4ft 9s 7s 11 16 mph 1021.6mb 56f 53f
8:50pm 3.5ft 8s 6s 13 16 mph 1020.9mb 56f 54f
7:50pm 4ft 8s 7s 11 13 mph 1021mb 57f 54f
6:50pm 3.5ft 8s 7s 11 16 mph 1020.9mb 57f 55f
5:50pm 3.5ft 8s 7s 9 11 mph 1021.1mb 57f 54f
4:50pm 3.5ft 8s 7s 11 13 mph 1021.2mb 58f 54f
3:50pm 3.5ft 9s 7s 11 13 mph 1021.5mb 57f 55f
2:50pm 3.5ft 8s 7s 9 11 mph 1021.6mb 58f 55f
1:50pm 3.5ft 9s 7s 7 9 mph 1021.8mb 57f 54f
12:50pm 3.5ft 8s 7s 4 4 mph 1021.7mb 56f 54f
11:50am 3.5ft 9s 6s 4 4 mph 1021.7mb 56f 54f
10:50am 3.5ft 8s 6s 4 7 mph 1021.8mb 55f 54f
9:50am 3.5ft 9s 7s 7 7 mph 1021.4mb 55f 54f
8:50am 3.5ft 9s 7s 7 7 mph 1021.1mb 55f 54f
7:50am 3.5ft 8s 7s 7 7 mph 1020.8mb 56f 54f